createdAt,value
2022-11-15T00:01:03.341Z,6.07
2022-11-15T00:03:31.362Z,6.28
2022-11-15T00:06:04.364Z,6.68
2022-11-15T00:08:32.684Z,6.18
2022-11-15T00:11:04.008Z,6.90
2022-11-15T00:13:32.221Z,7.75
2022-11-15T00:16:01.323Z,6.13
2022-11-15T00:18:29.279Z,6.93
2022-11-15T00:20:57.181Z,5.72
2022-11-15T00:23:24.976Z,6.22
2022-11-15T00:25:58.533Z,6.38
2022-11-15T00:28:28.087Z,6.50
2022-11-15T00:30:55.835Z,5.65
2022-11-15T00:33:23.584Z,5.95
2022-11-15T00:35:51.260Z,5.68
2022-11-15T00:38:19.006Z,6.40
2022-11-15T00:40:46.666Z,6.18
2022-11-15T00:43:14.332Z,5.57
2022-11-15T00:45:43.337Z,5.90
2022-11-15T00:48:11.873Z,5.88
2022-11-15T00:50:39.586Z,6.28
2022-11-15T00:53:07.268Z,5.55
2022-11-15T00:55:34.916Z,6.57
2022-11-15T00:58:02.683Z,5.47
2022-11-15T01:00:30.534Z,5.72
2022-11-15T01:02:59.654Z,5.78
2022-11-15T01:05:27.318Z,5.65
2022-11-15T01:07:55.298Z,5.53
2022-11-15T01:10:23.366Z,5.78
2022-11-15T01:12:51.821Z,5.93
2022-11-15T01:15:19.688Z,5.32
2022-11-15T01:17:47.424Z,5.80
2022-11-15T01:20:16.429Z,6.13
2022-11-15T01:22:44.114Z,5.82
2022-11-15T01:25:11.852Z,5.13
2022-11-15T01:27:39.569Z,5.13
2022-11-15T01:30:09.266Z,5.20
2022-11-15T01:32:36.960Z,5.38
2022-11-15T01:35:04.945Z,5.43
2022-11-15T01:37:33.954Z,4.90
2022-11-15T01:40:01.665Z,5.25
2022-11-15T01:42:29.363Z,5.38
2022-11-15T01:44:57.044Z,5.45
2022-11-15T01:47:28.271Z,4.97
2022-11-15T01:50:01.664Z,5.30
2022-11-15T01:52:32.494Z,5.40
2022-11-15T01:55:09.108Z,5.47
2022-11-15T01:57:37.014Z,4.63
2022-11-15T02:00:07.028Z,5.15
2022-11-15T02:02:36.512Z,5.25
2022-11-15T02:05:04.803Z,5.18
2022-11-15T02:07:33.828Z,5.10
2022-11-15T02:10:08.638Z,5.60
2022-11-15T02:12:36.651Z,4.20
2022-11-15T02:15:06.227Z,5.22
2022-11-15T02:17:50.599Z,4.80
2022-11-15T02:20:59.168Z,5.25
2022-11-15T02:23:58.137Z,5.03
2022-11-15T02:26:58.444Z,4.30
2022-11-15T02:29:43.374Z,5.03
2022-11-15T02:32:20.739Z,5.45
2022-11-15T02:34:56.792Z,4.82
2022-11-15T02:37:33.644Z,4.72
2022-11-15T02:42:57.338Z,4.90
2022-11-15T02:45:29.156Z,5.30
2022-11-15T02:48:02.718Z,5.45
2022-11-15T02:50:33.733Z,5.68
2022-11-15T02:53:01.831Z,5.35
2022-11-15T02:55:31.689Z,5.15
2022-11-15T02:58:16.530Z,5.57
2022-11-15T03:00:49.703Z,5.13
2022-11-15T03:03:42.302Z,4.93
2022-11-15T03:06:23.352Z,4.63
2022-11-15T03:09:03.950Z,4.60
2022-11-15T03:11:34.516Z,4.75
2022-11-15T03:14:08.971Z,5.25
2022-11-15T03:16:39.880Z,4.65
2022-11-15T03:19:14.021Z,5.00
2022-11-15T03:21:42.821Z,5.00
2022-11-15T03:24:11.674Z,5.05
2022-11-15T03:26:43.133Z,5.38
2022-11-15T03:29:16.964Z,4.97
2022-11-15T03:31:50.751Z,5.47
2022-11-15T03:34:28.463Z,4.95
2022-11-15T03:36:56.288Z,4.72
2022-11-15T03:39:25.471Z,4.60
2022-11-15T03:42:04.399Z,5.03
2022-11-15T03:44:42.278Z,4.43
2022-11-15T03:47:14.435Z,4.53
2022-11-15T03:49:48.444Z,4.88
2022-11-15T03:52:20.020Z,5.15
2022-11-15T03:54:52.671Z,4.93
2022-11-15T03:57:20.419Z,4.90
2022-11-15T03:59:48.046Z,5.18
2022-11-15T04:02:16.326Z,5.00
2022-11-15T04:04:45.410Z,4.80
2022-11-15T04:07:13.222Z,5.13
2022-11-15T04:09:55.146Z,4.68
2022-11-15T04:12:31.651Z,4.90
2022-11-15T04:15:10.034Z,4.72
2022-11-15T04:17:39.642Z,5.72
2022-11-15T04:20:29.699Z,4.85
2022-11-15T04:23:16.116Z,4.97
2022-11-15T04:25:45.264Z,4.93
2022-11-15T04:28:13.680Z,4.53
2022-11-15T04:30:41.434Z,4.03
2022-11-15T04:33:09.127Z,5.18
2022-11-15T04:35:38.107Z,4.85
2022-11-15T04:38:07.007Z,5.10
2022-11-15T04:40:35.017Z,5.20
2022-11-15T04:43:04.072Z,6.13
2022-11-15T04:45:32.232Z,4.72
2022-11-15T04:47:59.935Z,4.88
2022-11-15T04:50:27.593Z,5.05
2022-11-15T04:52:56.577Z,5.40
2022-11-15T04:55:24.269Z,4.78
2022-11-15T04:57:59.875Z,5.25
2022-11-15T05:00:28.768Z,4.68
2022-11-15T05:03:14.145Z,4.95
2022-11-15T05:05:41.848Z,4.95
2022-11-15T05:08:10.829Z,4.65
2022-11-15T05:10:38.488Z,5.47
2022-11-15T05:13:06.149Z,5.32
2022-11-15T05:15:33.841Z,5.45
2022-11-15T05:18:01.597Z,5.57
2022-11-15T05:20:29.323Z,5.07
2022-11-15T05:22:57.316Z,5.50
2022-11-15T05:25:27.149Z,4.63
2022-11-15T05:27:54.835Z,5.22
2022-11-15T05:30:22.562Z,5.18
2022-11-15T05:32:51.300Z,4.57
2022-11-15T05:35:24.892Z,5.13
2022-11-15T05:37:52.579Z,5.55
2022-11-15T05:40:20.245Z,4.60
2022-11-15T05:42:50.031Z,5.00
2022-11-15T05:45:22.526Z,4.75
2022-11-15T05:47:57.344Z,4.28
2022-11-15T05:50:25.443Z,4.38
2022-11-15T05:52:53.818Z,4.32
2022-11-15T05:55:21.716Z,4.57
2022-11-15T05:57:50.900Z,4.45
2022-11-15T06:00:19.186Z,4.70
2022-11-15T06:02:46.841Z,5.57
2022-11-15T06:05:14.717Z,5.25
2022-11-15T06:07:42.432Z,4.68
2022-11-15T06:10:11.040Z,5.55
2022-11-15T06:12:38.714Z,4.28
2022-11-15T06:15:09.091Z,4.97
2022-11-15T06:17:36.801Z,5.35
2022-11-15T06:20:04.840Z,4.57
2022-11-15T06:22:32.513Z,5.75
2022-11-15T06:25:05.001Z,5.25
2022-11-15T06:27:33.219Z,5.75
2022-11-15T06:30:00.866Z,5.82
2022-11-15T06:32:31.154Z,5.43
2022-11-15T06:34:58.863Z,4.88
2022-11-15T06:37:26.563Z,5.60
2022-11-15T06:39:54.248Z,5.40
2022-11-15T06:42:21.958Z,4.95
2022-11-15T06:44:49.617Z,4.93
2022-11-15T06:47:17.280Z,5.22
2022-11-15T06:49:46.330Z,5.03
2022-11-15T06:52:13.968Z,4.50
2022-11-15T06:54:41.658Z,4.72
2022-11-15T06:57:09.413Z,4.53
2022-11-15T06:59:40.432Z,4.88
2022-11-15T07:02:13.637Z,5.00
2022-11-15T07:04:41.340Z,4.30
2022-11-15T07:07:10.423Z,4.43
2022-11-15T07:09:38.136Z,4.80
2022-11-15T07:12:08.026Z,4.00
2022-11-15T07:14:35.799Z,4.30
2022-11-15T07:17:05.665Z,4.78
2022-11-15T07:19:33.571Z,4.60
2022-11-15T07:22:01.250Z,4.70
2022-11-15T07:24:30.285Z,4.18
2022-11-15T07:26:58.139Z,4.50
2022-11-15T07:29:25.952Z,4.60
2022-11-15T07:31:53.602Z,4.80
2022-11-15T07:34:21.315Z,4.40
2022-11-15T07:36:49.022Z,4.40
2022-11-15T07:39:16.737Z,4.45
2022-11-15T07:41:45.775Z,4.57
2022-11-15T07:44:13.482Z,3.72
2022-11-15T07:46:41.198Z,4.75
2022-11-15T07:49:08.841Z,3.67
2022-11-15T07:51:36.597Z,3.92
2022-11-15T07:54:04.439Z,3.95
2022-11-15T07:56:32.362Z,3.75
2022-11-15T07:59:01.964Z,4.20
2022-11-15T08:01:29.803Z,3.67
2022-11-15T08:03:57.562Z,3.78
2022-11-15T08:06:25.254Z,3.58
2022-11-15T08:08:52.967Z,3.63
2022-11-15T08:11:20.674Z,4.55
2022-11-15T08:13:48.377Z,4.18
2022-11-15T08:16:17.436Z,3.45
2022-11-15T08:18:45.114Z,3.75
2022-11-15T08:21:22.053Z,3.58
2022-11-15T08:23:49.948Z,3.65
2022-11-15T08:26:17.728Z,3.35
2022-11-15T08:28:45.627Z,3.70
2022-11-15T08:31:19.322Z,3.20
2022-11-15T08:33:47.119Z,3.63
2022-11-15T08:36:16.499Z,3.22
2022-11-15T08:38:44.553Z,3.50
2022-11-15T08:41:15.626Z,3.65
2022-11-15T08:43:43.346Z,3.08
2022-11-15T08:46:14.758Z,3.22
2022-11-15T08:48:43.846Z,3.33
2022-11-15T08:51:11.542Z,2.88
2022-11-15T08:53:39.317Z,3.92
2022-11-15T08:56:09.787Z,3.22
2022-11-15T08:58:37.499Z,3.10
2022-11-15T09:01:06.341Z,3.10
2022-11-15T09:03:34.090Z,2.60
2022-11-15T09:06:03.217Z,2.95
2022-11-15T09:08:47.109Z,3.47
2022-11-15T09:11:17.516Z,2.33
2022-11-15T09:13:45.297Z,2.85
2022-11-15T09:16:13.696Z,2.67
2022-11-15T09:18:41.362Z,2.60
2022-11-15T09:21:11.238Z,2.08
2022-11-15T09:23:39.212Z,2.47
2022-11-15T09:26:08.099Z,2.30
2022-11-15T09:28:36.690Z,2.70
2022-11-15T09:31:07.102Z,2.10
2022-11-15T09:33:35.219Z,1.90
2022-11-15T09:36:04.346Z,1.92
2022-11-15T09:38:34.642Z,1.98
2022-11-15T09:41:50.299Z,1.90
2022-11-15T09:44:39.614Z,2.25
2022-11-15T09:47:36.242Z,1.65
2022-11-15T09:50:12.132Z,1.52
2022-11-15T09:52:43.574Z,1.50
2022-11-15T09:55:22.255Z,1.80
2022-11-15T09:57:56.323Z,1.45
2022-11-15T10:00:45.801Z,1.08
2022-11-15T10:03:16.228Z,1.10
2022-11-15T10:05:47.569Z,1.98
2022-11-15T10:08:27.670Z,1.40
2022-11-15T10:11:22.739Z,1.58
2022-11-15T10:13:50.308Z,1.38
2022-11-15T10:16:36.381Z,1.35
2022-11-15T10:19:14.209Z,1.20
2022-11-15T10:21:51.552Z,2.03
2022-11-15T10:24:22.359Z,1.30
2022-11-15T10:26:52.378Z,1.15
2022-11-15T10:29:26.845Z,1.13
2022-11-15T10:31:55.218Z,1.27
2022-11-15T10:34:24.656Z,1.30
2022-11-15T10:36:57.993Z,1.30
2022-11-15T10:39:26.512Z,0.90
2022-11-15T10:41:55.978Z,1.27
2022-11-15T10:44:27.226Z,1.25
2022-11-15T10:47:24.362Z,1.60
2022-11-15T10:49:59.969Z,1.63
2022-11-15T10:52:29.024Z,1.17
2022-11-15T10:55:03.452Z,1.08
2022-11-15T10:57:35.670Z,1.10
2022-11-15T11:00:06.369Z,1.20
2022-11-15T11:02:37.594Z,1.38
2022-11-15T11:05:07.239Z,1.15
2022-11-15T11:07:37.843Z,1.67
2022-11-15T11:10:49.326Z,1.35
2022-11-15T11:13:25.427Z,2.33
2022-11-15T11:16:01.286Z,1.15
2022-11-15T11:18:35.478Z,1.30
2022-11-15T11:21:10.272Z,1.23
2022-11-15T11:23:48.624Z,1.05
2022-11-15T11:26:37.784Z,1.15
2022-11-15T11:29:32.327Z,1.52
2022-11-15T11:32:07.954Z,1.60
2022-11-15T11:34:51.357Z,1.08
2022-11-15T11:37:26.086Z,1.25
2022-11-15T11:40:10.410Z,1.27
2022-11-15T11:42:46.219Z,1.30
2022-11-15T11:45:26.270Z,1.10
2022-11-15T11:48:14.656Z,1.38
2022-11-15T11:50:44.402Z,1.55
2022-11-15T11:53:16.070Z,1.50
2022-11-15T11:55:48.364Z,1.45
2022-11-15T11:58:19.619Z,1.30
2022-11-15T12:00:54.040Z,1.35
2022-11-15T12:03:30.747Z,1.30
2022-11-15T12:08:35.442Z,1.27
2022-11-15T12:11:12.330Z,1.42
2022-11-15T12:13:40.872Z,1.27
2022-11-15T12:16:18.210Z,1.05
2022-11-15T12:18:50.723Z,1.00
2022-11-15T12:21:28.759Z,1.30
2022-11-15T12:24:05.132Z,1.20
2022-11-15T12:26:39.406Z,1.85
2022-11-15T12:29:14.055Z,1.33
2022-11-15T12:31:46.092Z,1.83
2022-11-15T12:34:36.713Z,1.20
2022-11-15T12:37:49.324Z,1.20
2022-11-15T12:40:24.442Z,1.42
2022-11-15T12:43:39.591Z,1.33
2022-11-15T12:46:12.429Z,1.55
2022-11-15T12:48:58.684Z,1.17
2022-11-15T12:52:08.949Z,1.00
2022-11-15T12:55:04.073Z,1.92
2022-11-15T12:57:40.787Z,1.15
2022-11-15T13:03:20.307Z,1.40
2022-11-15T13:06:36.821Z,1.00
2022-11-15T13:09:05.075Z,1.00
2022-11-15T13:11:52.602Z,1.30
2022-11-15T13:14:46.407Z,0.90
2022-11-15T13:17:33.676Z,1.23
2022-11-15T13:22:55.624Z,0.98
2022-11-15T13:25:52.975Z,1.50
2022-11-15T13:28:29.348Z,1.08
2022-11-15T13:31:00.794Z,1.05
2022-11-15T13:33:36.255Z,0.93
2022-11-15T13:36:07.825Z,2.03
2022-11-15T13:38:37.413Z,1.38
2022-11-15T13:41:21.052Z,1.10
2022-11-15T13:43:51.464Z,1.20
2022-11-15T13:46:20.977Z,1.23
2022-11-15T13:48:54.464Z,0.93
2022-11-15T13:51:27.994Z,1.00
2022-11-15T13:54:00.627Z,0.90
2022-11-15T13:56:30.905Z,1.20
2022-11-15T13:59:00.210Z,1.35
2022-11-15T14:01:32.202Z,1.20
2022-11-15T14:04:02.813Z,1.20
2022-11-15T14:06:32.473Z,1.10
2022-11-15T14:09:16.722Z,1.13
2022-11-15T14:11:53.579Z,1.00
2022-11-15T14:16:53.360Z,1.50
2022-11-15T14:19:39.066Z,1.17
2022-11-15T14:22:18.496Z,1.55
2022-11-15T14:24:48.296Z,1.10
2022-11-15T14:27:22.204Z,1.10
2022-11-15T14:29:51.395Z,1.15
2022-11-15T14:32:21.955Z,1.00
2022-11-15T14:34:51.455Z,1.00
2022-11-15T14:37:23.245Z,0.98
2022-11-15T14:39:51.816Z,1.10
2022-11-15T14:42:20.404Z,1.05
2022-11-15T14:44:48.145Z,1.02
2022-11-15T14:47:17.412Z,1.00
2022-11-15T14:49:45.597Z,1.33
2022-11-15T14:52:31.814Z,1.38
2022-11-15T14:55:02.463Z,1.17
2022-11-15T14:57:30.542Z,1.00
2022-11-15T14:59:58.809Z,1.00
2022-11-15T15:02:29.033Z,1.08
2022-11-15T15:04:56.820Z,1.15
2022-11-15T15:07:24.538Z,2.05
2022-11-15T15:09:52.321Z,1.15
2022-11-15T15:12:22.070Z,1.70
2022-11-15T15:14:52.049Z,1.20
2022-11-15T15:17:19.791Z,1.17
2022-11-15T15:19:48.818Z,0.93
2022-11-15T15:22:19.033Z,1.35
2022-11-15T15:24:48.246Z,1.42
2022-11-15T15:27:16.437Z,1.30
2022-11-15T15:29:44.238Z,1.25
2022-11-15T15:32:14.089Z,1.15
2022-11-15T15:34:41.790Z,1.25
2022-11-15T15:37:24.576Z,1.20
2022-11-15T15:39:52.746Z,1.25
2022-11-15T15:42:20.651Z,1.63
2022-11-15T15:44:48.527Z,1.00
2022-11-15T15:47:18.856Z,1.10
2022-11-15T15:49:46.579Z,1.15
2022-11-15T15:52:15.649Z,1.10
2022-11-15T15:54:43.684Z,1.10
2022-11-15T15:57:16.573Z,1.20
2022-11-15T15:59:44.272Z,0.98
2022-11-15T16:02:14.016Z,0.95
2022-11-15T16:04:42.048Z,1.27
2022-11-15T16:07:18.760Z,1.50
2022-11-15T16:12:34.458Z,1.00
2022-11-15T16:15:03.030Z,1.00
2022-11-15T16:17:34.691Z,1.40
2022-11-15T16:20:02.580Z,1.25
2022-11-15T16:22:31.656Z,1.25
2022-11-15T16:24:59.399Z,1.20
2022-11-15T16:27:27.103Z,0.85
2022-11-15T16:29:54.738Z,1.05
2022-11-15T16:32:22.547Z,1.17
2022-11-15T16:34:50.573Z,1.50
2022-11-15T16:37:24.373Z,1.52
2022-11-15T16:39:57.206Z,1.45
2022-11-15T16:42:28.426Z,1.70
2022-11-15T16:44:56.133Z,1.30
2022-11-15T16:47:24.008Z,1.48
2022-11-15T16:49:51.707Z,1.50
2022-11-15T16:52:21.482Z,1.30
2022-11-15T16:54:49.376Z,1.42
2022-11-15T16:57:18.443Z,1.80
2022-11-15T16:59:46.096Z,1.45
2022-11-15T17:02:14.076Z,1.83
2022-11-15T17:04:42.034Z,1.45
2022-11-15T17:07:10.152Z,1.70
2022-11-15T17:09:38.009Z,1.63
2022-11-15T17:12:05.857Z,1.42
2022-11-15T17:14:34.884Z,1.70
2022-11-15T17:17:02.619Z,2.65
2022-11-15T17:19:30.302Z,1.23
2022-11-15T17:21:57.950Z,1.58
2022-11-15T17:24:25.672Z,1.52
2022-11-15T17:26:53.461Z,1.95
2022-11-15T17:29:21.153Z,1.60
2022-11-15T17:31:50.202Z,1.63
2022-11-15T17:34:17.905Z,2.08
2022-11-15T17:36:45.545Z,1.50
2022-11-15T17:39:13.180Z,1.90
2022-11-15T17:41:40.904Z,1.80
2022-11-15T17:44:08.617Z,1.70
2022-11-15T17:46:36.415Z,1.58
2022-11-15T17:49:05.520Z,1.75
2022-11-15T17:51:33.353Z,1.98
2022-11-15T17:54:01.073Z,1.70
2022-11-15T17:56:30.912Z,1.40
2022-11-15T17:59:00.039Z,2.00
2022-11-15T18:01:29.678Z,1.88
2022-11-15T18:04:00.442Z,1.67
2022-11-15T18:06:33.284Z,2.45
2022-11-15T18:09:01.646Z,2.28
2022-11-15T18:11:30.987Z,2.00
2022-11-15T18:14:00.467Z,1.65
2022-11-15T18:16:30.906Z,1.63
2022-11-15T18:18:59.645Z,1.80
2022-11-15T18:21:30.293Z,2.00
2022-11-15T18:23:59.884Z,1.70
2022-11-15T18:26:29.338Z,1.88
2022-11-15T18:28:59.144Z,1.70
2022-11-15T18:31:28.468Z,2.10
2022-11-15T18:33:56.967Z,2.17
2022-11-15T18:36:26.788Z,1.90
2022-11-15T18:38:57.275Z,2.15
2022-11-15T18:41:28.406Z,2.15
2022-11-15T18:43:57.101Z,2.20
2022-11-15T18:46:26.895Z,1.90
2022-11-15T18:48:55.827Z,1.90
2022-11-15T18:51:25.528Z,2.05
2022-11-15T18:53:54.504Z,2.42
2022-11-15T18:56:25.016Z,2.20
2022-11-15T18:58:55.501Z,1.80
2022-11-15T19:01:24.920Z,2.05
2022-11-15T19:03:55.562Z,2.40
2022-11-15T19:06:24.732Z,2.22
2022-11-15T19:08:54.656Z,2.25
2022-11-15T19:11:27.052Z,2.33
2022-11-15T19:13:56.444Z,2.47
2022-11-15T19:16:24.979Z,2.25
2022-11-15T19:18:54.884Z,2.03
2022-11-15T19:21:22.613Z,2.00
2022-11-15T19:23:50.502Z,2.53
2022-11-15T19:26:18.413Z,2.10
2022-11-15T19:28:52.437Z,2.08
2022-11-15T19:31:20.707Z,1.73
2022-11-15T19:33:48.859Z,2.55
2022-11-15T19:36:19.398Z,2.03
2022-11-15T19:38:47.142Z,2.20
2022-11-15T19:41:17.526Z,1.92
2022-11-15T19:43:47.990Z,2.25
2022-11-15T19:46:16.664Z,2.67
2022-11-15T19:48:45.189Z,2.30
2022-11-15T19:51:15.349Z,2.00
2022-11-15T19:53:43.708Z,2.30
2022-11-15T19:56:13.841Z,2.05
2022-11-15T19:58:42.308Z,1.92
2022-11-15T20:01:17.972Z,1.85
2022-11-15T20:03:46.728Z,1.97
2022-11-15T20:06:16.736Z,2.28
2022-11-15T20:08:45.209Z,2.38
2022-11-15T20:11:13.834Z,2.20
2022-11-15T20:13:42.284Z,2.45
2022-11-15T20:16:17.024Z,2.20
2022-11-15T20:18:44.822Z,2.08
2022-11-15T20:21:12.960Z,2.45
2022-11-15T20:23:40.746Z,2.58
2022-11-15T20:26:08.907Z,2.13
2022-11-15T20:28:38.156Z,2.20
2022-11-15T20:31:06.607Z,2.20
2022-11-15T20:33:36.278Z,2.50
2022-11-15T20:36:05.837Z,2.00
2022-11-15T20:38:34.505Z,2.17
2022-11-15T20:41:02.779Z,2.10
2022-11-15T20:43:30.504Z,2.20
2022-11-15T20:45:58.277Z,2.40
2022-11-15T20:48:25.972Z,2.08
2022-11-15T20:51:04.762Z,1.90
2022-11-15T20:53:32.745Z,2.17
2022-11-15T20:56:05.821Z,2.15
2022-11-15T20:58:33.807Z,2.38
2022-11-15T21:01:01.746Z,2.28
2022-11-15T21:03:29.992Z,2.22
2022-11-15T21:05:59.054Z,1.83
2022-11-15T21:08:26.733Z,2.20
2022-11-15T21:11:13.518Z,2.97
2022-11-15T21:13:41.304Z,2.97
2022-11-15T21:16:09.579Z,2.33
2022-11-15T21:18:37.372Z,2.78
2022-11-15T21:21:07.378Z,2.33
2022-11-15T21:23:35.015Z,2.40
2022-11-15T21:26:02.770Z,2.22
2022-11-15T21:28:30.674Z,2.20
2022-11-15T21:31:01.049Z,3.00
2022-11-15T21:33:29.082Z,2.50
2022-11-15T21:35:57.713Z,2.50
2022-11-15T21:38:28.832Z,2.47
2022-11-15T21:40:56.477Z,2.55
2022-11-15T21:43:24.179Z,2.50
2022-11-15T21:45:59.129Z,2.47
2022-11-15T21:48:27.205Z,3.00
2022-11-15T21:50:58.360Z,2.60
2022-11-15T21:53:28.915Z,2.47
2022-11-15T21:55:56.826Z,2.63
2022-11-15T21:58:24.872Z,2.80
2022-11-15T22:01:10.182Z,2.63
2022-11-15T22:03:37.894Z,2.28
2022-11-15T22:06:06.083Z,2.53
2022-11-15T22:08:35.617Z,2.72
2022-11-15T22:11:03.517Z,2.40
2022-11-15T22:13:31.231Z,2.53
2022-11-15T22:15:58.880Z,2.40
2022-11-15T22:18:26.928Z,2.70
2022-11-15T22:20:55.601Z,2.63
2022-11-15T22:23:23.569Z,2.65
2022-11-15T22:25:53.296Z,2.67
2022-11-15T22:28:22.059Z,2.90
2022-11-15T22:30:51.008Z,2.80
2022-11-15T22:33:21.547Z,2.60
2022-11-15T22:35:49.638Z,2.40
2022-11-15T22:38:17.279Z,2.92
2022-11-15T22:40:46.553Z,3.00
2022-11-15T22:43:17.205Z,2.53
2022-11-15T22:45:49.344Z,2.92
2022-11-15T22:48:17.329Z,3.45
2022-11-15T22:50:45.460Z,2.90
2022-11-15T22:53:13.407Z,2.85
2022-11-15T22:55:41.797Z,2.65
2022-11-15T22:58:09.817Z,3.00
2022-11-15T23:00:38.878Z,3.03
2022-11-15T23:03:06.563Z,2.65
2022-11-15T23:05:34.881Z,2.40
2022-11-15T23:08:02.561Z,2.55
2022-11-15T23:10:47.613Z,2.55
2022-11-15T23:13:18.822Z,2.95
2022-11-15T23:16:08.616Z,2.90
2022-11-15T23:18:37.077Z,3.20
2022-11-15T23:21:12.216Z,2.70
2022-11-15T23:23:39.182Z,2.50
2022-11-15T23:26:07.502Z,2.33
2022-11-15T23:28:36.145Z,2.85
2022-11-15T23:31:24.480Z,2.50
2022-11-15T23:33:58.247Z,2.70
2022-11-15T23:36:26.573Z,2.67
2022-11-15T23:38:54.629Z,3.28
2022-11-15T23:41:23.729Z,2.83
2022-11-15T23:43:51.677Z,2.78
2022-11-15T23:46:20.822Z,2.40
2022-11-15T23:48:48.489Z,2.50
2022-11-15T23:51:16.194Z,2.88
2022-11-15T23:53:43.934Z,2.90
2022-11-15T23:56:14.588Z,2.70
2022-11-15T23:58:42.919Z,2.78
